sensor_id;sensor_type;location;lat;lon;timestamp;P1;durP1;ratioP1;P2;durP2;ratioP2
53010;SDS011;42803;55.762;38.084;2023-02-13T00:02:27;2.92;;;2.20;;
53010;SDS011;42803;55.762;38.084;2023-02-13T00:04:57;8.98;;;2.70;;
53010;SDS011;42803;55.762;38.084;2023-02-13T00:07:26;7.22;;;2.70;;
53010;SDS011;42803;55.762;38.084;2023-02-13T00:09:55;5.82;;;3.17;;
53010;SDS011;42803;55.762;38.084;2023-02-13T00:12:24;9.38;;;4.13;;
53010;SDS011;42803;55.762;38.084;2023-02-13T00:14:53;14.90;;;5.75;;
53010;SDS011;42803;55.762;38.084;2023-02-13T00:17:22;7.90;;;4.63;;
53010;SDS011;42803;55.762;38.084;2023-02-13T00:19:51;10.45;;;4.47;;
53010;SDS011;42803;55.762;38.084;2023-02-13T00:22:22;14.02;;;4.93;;
53010;SDS011;42803;55.762;38.084;2023-02-13T00:24:51;8.75;;;3.92;;
53010;SDS011;42803;55.762;38.084;2023-02-13T00:27:20;12.00;;;4.78;;
53010;SDS011;42803;55.762;38.084;2023-02-13T00:29:49;8.23;;;3.25;;
53010;SDS011;42803;55.762;38.084;2023-02-13T00:32:19;10.20;;;3.80;;
53010;SDS011;42803;55.762;38.084;2023-02-13T00:34:48;12.63;;;4.85;;
53010;SDS011;42803;55.762;38.084;2023-02-13T00:37:17;12.68;;;4.03;;
53010;SDS011;42803;55.762;38.084;2023-02-13T00:39:47;6.70;;;3.97;;
53010;SDS011;42803;55.762;38.084;2023-02-13T00:42:16;9.43;;;4.15;;
53010;SDS011;42803;55.762;38.084;2023-02-13T00:44:46;10.70;;;4.05;;
53010;SDS011;42803;55.762;38.084;2023-02-13T00:47:15;8.48;;;3.75;;
53010;SDS011;42803;55.762;38.084;2023-02-13T00:49:44;10.93;;;4.43;;
53010;SDS011;42803;55.762;38.084;2023-02-13T00:52:13;9.75;;;4.70;;
53010;SDS011;42803;55.762;38.084;2023-02-13T00:54:43;10.23;;;3.88;;
53010;SDS011;42803;55.762;38.084;2023-02-13T00:57:14;13.60;;;4.60;;
53010;SDS011;42803;55.762;38.084;2023-02-13T00:59:43;11.88;;;4.65;;
53010;SDS011;42803;55.762;38.084;2023-02-13T01:02:13;11.32;;;5.18;;
53010;SDS011;42803;55.762;38.084;2023-02-13T01:04:41;12.38;;;5.00;;
53010;SDS011;42803;55.762;38.084;2023-02-13T01:07:11;16.42;;;4.95;;
53010;SDS011;42803;55.762;38.084;2023-02-13T01:09:43;12.13;;;5.88;;
53010;SDS011;42803;55.762;38.084;2023-02-13T01:12:12;20.98;;;7.70;;
53010;SDS011;42803;55.762;38.084;2023-02-13T01:14:44;18.75;;;6.95;;
53010;SDS011;42803;55.762;38.084;2023-02-13T01:17:13;18.70;;;7.00;;
53010;SDS011;42803;55.762;38.084;2023-02-13T01:19:43;15.60;;;6.20;;
53010;SDS011;42803;55.762;38.084;2023-02-13T01:22:12;11.45;;;5.35;;
53010;SDS011;42803;55.762;38.084;2023-02-13T01:24:41;13.32;;;5.32;;
53010;SDS011;42803;55.762;38.084;2023-02-13T01:27:10;10.98;;;5.15;;
53010;SDS011;42803;55.762;38.084;2023-02-13T01:29:39;8.88;;;4.20;;
53010;SDS011;42803;55.762;38.084;2023-02-13T01:32:10;9.90;;;4.57;;
53010;SDS011;42803;55.762;38.084;2023-02-13T01:34:39;7.38;;;3.72;;
53010;SDS011;42803;55.762;38.084;2023-02-13T01:37:10;8.60;;;4.28;;
53010;SDS011;42803;55.762;38.084;2023-02-13T01:39:39;9.43;;;4.90;;
53010;SDS011;42803;55.762;38.084;2023-02-13T01:42:10;7.40;;;4.10;;
53010;SDS011;42803;55.762;38.084;2023-02-13T01:44:47;11.57;;;4.13;;
53010;SDS011;42803;55.762;38.084;2023-02-13T01:47:23;5.78;;;3.65;;
53010;SDS011;42803;55.762;38.084;2023-02-13T01:49:58;8.38;;;3.50;;
53010;SDS011;42803;55.762;38.084;2023-02-13T01:52:32;8.25;;;3.85;;
53010;SDS011;42803;55.762;38.084;2023-02-13T01:55:03;11.07;;;3.92;;
53010;SDS011;42803;55.762;38.084;2023-02-13T01:57:34;8.30;;;4.40;;
53010;SDS011;42803;55.762;38.084;2023-02-13T02:00:07;18.35;;;7.00;;
53010;SDS011;42803;55.762;38.084;2023-02-13T02:02:46;42.35;;;12.70;;
53010;SDS011;42803;55.762;38.084;2023-02-13T02:05:23;50.47;;;17.13;;
53010;SDS011;42803;55.762;38.084;2023-02-13T02:07:56;29.05;;;12.43;;
53010;SDS011;42803;55.762;38.084;2023-02-13T02:10:27;12.38;;;8.23;;
53010;SDS011;42803;55.762;38.084;2023-02-13T02:13:00;12.85;;;5.15;;
53010;SDS011;42803;55.762;38.084;2023-02-13T02:15:36;7.68;;;4.30;;
53010;SDS011;42803;55.762;38.084;2023-02-13T02:18:08;9.55;;;4.10;;
53010;SDS011;42803;55.762;38.084;2023-02-13T02:20:55;12.15;;;5.95;;
53010;SDS011;42803;55.762;38.084;2023-02-13T02:23:46;13.63;;;6.82;;
53010;SDS011;42803;55.762;38.084;2023-02-13T02:26:52;13.10;;;4.95;;
53010;SDS011;42803;55.762;38.084;2023-02-13T02:29:43;8.77;;;4.35;;
53010;SDS011;42803;55.762;38.084;2023-02-13T02:32:49;13.38;;;4.78;;
53010;SDS011;42803;55.762;38.084;2023-02-13T02:35:33;13.05;;;4.25;;
53010;SDS011;42803;55.762;38.084;2023-02-13T02:38:17;14.68;;;4.38;;
53010;SDS011;42803;55.762;38.084;2023-02-13T02:41:02;9.68;;;4.20;;
53010;SDS011;42803;55.762;38.084;2023-02-13T02:43:43;11.70;;;5.10;;
53010;SDS011;42803;55.762;38.084;2023-02-13T02:46:23;20.77;;;6.40;;
53010;SDS011;42803;55.762;38.084;2023-02-13T02:49:03;11.65;;;4.25;;
53010;SDS011;42803;55.762;38.084;2023-02-13T02:52:02;20.50;;;6.40;;
53010;SDS011;42803;55.762;38.084;2023-02-13T02:57:29;25.38;;;7.22;;
53010;SDS011;42803;55.762;38.084;2023-02-13T03:00:13;17.38;;;7.85;;
53010;SDS011;42803;55.762;38.084;2023-02-13T03:03:02;20.88;;;8.27;;
53010;SDS011;42803;55.762;38.084;2023-02-13T03:05:55;15.18;;;6.20;;
53010;SDS011;42803;55.762;38.084;2023-02-13T03:08:39;17.75;;;6.32;;
53010;SDS011;42803;55.762;38.084;2023-02-13T03:11:28;12.68;;;5.50;;
53010;SDS011;42803;55.762;38.084;2023-02-13T03:14:15;11.20;;;4.47;;
53010;SDS011;42803;55.762;38.084;2023-02-13T03:16:48;10.95;;;4.45;;
53010;SDS011;42803;55.762;38.084;2023-02-13T03:19:38;13.60;;;5.50;;
53010;SDS011;42803;55.762;38.084;2023-02-13T03:22:47;9.48;;;3.72;;
53010;SDS011;42803;55.762;38.084;2023-02-13T03:25:31;10.25;;;4.60;;
53010;SDS011;42803;55.762;38.084;2023-02-13T03:28:08;18.17;;;5.72;;
53010;SDS011;42803;55.762;38.084;2023-02-13T03:31:04;16.63;;;5.88;;
53010;SDS011;42803;55.762;38.084;2023-02-13T03:33:48;13.80;;;5.32;;
53010;SDS011;42803;55.762;38.084;2023-02-13T03:36:30;13.82;;;4.80;;
53010;SDS011;42803;55.762;38.084;2023-02-13T03:39:41;8.43;;;4.40;;
53010;SDS011;42803;55.762;38.084;2023-02-13T03:42:17;26.85;;;8.20;;
53010;SDS011;42803;55.762;38.084;2023-02-13T03:44:52;14.20;;;5.72;;
53010;SDS011;42803;55.762;38.084;2023-02-13T03:47:38;18.02;;;5.93;;
53010;SDS011;42803;55.762;38.084;2023-02-13T03:50:09;16.85;;;6.85;;
53010;SDS011;42803;55.762;38.084;2023-02-13T03:52:42;16.25;;;6.25;;
53010;SDS011;42803;55.762;38.084;2023-02-13T03:55:19;21.38;;;6.35;;
53010;SDS011;42803;55.762;38.084;2023-02-13T03:58:10;27.73;;;6.63;;
53010;SDS011;42803;55.762;38.084;2023-02-13T04:01:01;14.95;;;6.95;;
53010;SDS011;42803;55.762;38.084;2023-02-13T04:03:34;11.88;;;5.30;;
53010;SDS011;42803;55.762;38.084;2023-02-13T04:06:11;13.05;;;5.30;;
53010;SDS011;42803;55.762;38.084;2023-02-13T04:08:43;20.65;;;5.65;;
53010;SDS011;42803;55.762;38.084;2023-02-13T04:11:14;15.18;;;4.75;;
53010;SDS011;42803;55.762;38.084;2023-02-13T04:13:49;14.63;;;5.35;;
53010;SDS011;42803;55.762;38.084;2023-02-13T04:16:26;12.05;;;5.03;;
53010;SDS011;42803;55.762;38.084;2023-02-13T04:19:00;21.75;;;6.45;;
53010;SDS011;42803;55.762;38.084;2023-02-13T04:21:31;18.27;;;6.05;;
53010;SDS011;42803;55.762;38.084;2023-02-13T04:24:00;27.40;;;6.40;;
53010;SDS011;42803;55.762;38.084;2023-02-13T04:26:33;23.67;;;6.13;;
53010;SDS011;42803;55.762;38.084;2023-02-13T04:29:04;16.23;;;5.78;;
53010;SDS011;42803;55.762;38.084;2023-02-13T04:31:33;19.67;;;5.75;;
53010;SDS011;42803;55.762;38.084;2023-02-13T04:34:02;18.70;;;5.50;;
53010;SDS011;42803;55.762;38.084;2023-02-13T04:36:31;22.73;;;6.45;;
53010;SDS011;42803;55.762;38.084;2023-02-13T04:39:00;15.13;;;4.95;;
53010;SDS011;42803;55.762;38.084;2023-02-13T04:41:29;14.23;;;4.88;;
53010;SDS011;42803;55.762;38.084;2023-02-13T04:44:00;8.57;;;4.47;;
53010;SDS011;42803;55.762;38.084;2023-02-13T04:46:29;5.35;;;4.13;;
53010;SDS011;42803;55.762;38.084;2023-02-13T04:48:58;11.77;;;5.07;;
53010;SDS011;42803;55.762;38.084;2023-02-13T04:51:27;12.52;;;4.50;;
53010;SDS011;42803;55.762;38.084;2023-02-13T04:53:56;12.98;;;6.30;;
53010;SDS011;42803;55.762;38.084;2023-02-13T04:56:25;11.57;;;5.28;;
53010;SDS011;42803;55.762;38.084;2023-02-13T04:58:56;12.95;;;5.85;;
53010;SDS011;42803;55.762;38.084;2023-02-13T05:01:25;18.70;;;6.07;;
53010;SDS011;42803;55.762;38.084;2023-02-13T05:03:54;15.00;;;6.65;;
53010;SDS011;42803;55.762;38.084;2023-02-13T05:06:23;19.15;;;6.60;;
53010;SDS011;42803;55.762;38.084;2023-02-13T05:08:52;26.70;;;6.68;;
53010;SDS011;42803;55.762;38.084;2023-02-13T05:11:21;13.93;;;4.65;;
53010;SDS011;42803;55.762;38.084;2023-02-13T05:13:50;10.52;;;4.70;;
53010;SDS011;42803;55.762;38.084;2023-02-13T05:16:21;15.10;;;3.97;;
53010;SDS011;42803;55.762;38.084;2023-02-13T05:18:50;6.53;;;3.55;;
53010;SDS011;42803;55.762;38.084;2023-02-13T05:21:21;10.85;;;3.38;;
53010;SDS011;42803;55.762;38.084;2023-02-13T05:24:07;10.55;;;3.13;;
53010;SDS011;42803;55.762;38.084;2023-02-13T05:26:36;7.43;;;3.13;;
53010;SDS011;42803;55.762;38.084;2023-02-13T05:29:05;4.25;;;3.05;;
53010;SDS011;42803;55.762;38.084;2023-02-13T05:31:48;6.30;;;2.60;;
53010;SDS011;42803;55.762;38.084;2023-02-13T05:34:19;11.52;;;3.40;;
53010;SDS011;42803;55.762;38.084;2023-02-13T05:36:49;7.28;;;2.70;;
53010;SDS011;42803;55.762;38.084;2023-02-13T05:39:18;6.88;;;3.17;;
53010;SDS011;42803;55.762;38.084;2023-02-13T05:41:48;10.73;;;3.55;;
53010;SDS011;42803;55.762;38.084;2023-02-13T05:44:17;6.82;;;3.05;;
53010;SDS011;42803;55.762;38.084;2023-02-13T05:46:46;8.07;;;2.63;;
53010;SDS011;42803;55.762;38.084;2023-02-13T05:49:17;7.25;;;3.00;;
53010;SDS011;42803;55.762;38.084;2023-02-13T05:51:46;6.30;;;2.08;;
53010;SDS011;42803;55.762;38.084;2023-02-13T05:54:15;4.38;;;2.65;;
53010;SDS011;42803;55.762;38.084;2023-02-13T05:56:44;6.70;;;2.40;;
53010;SDS011;42803;55.762;38.084;2023-02-13T05:59:14;7.18;;;2.72;;
53010;SDS011;42803;55.762;38.084;2023-02-13T06:01:43;4.63;;;2.42;;
53010;SDS011;42803;55.762;38.084;2023-02-13T06:04:12;9.48;;;3.38;;
53010;SDS011;42803;55.762;38.084;2023-02-13T06:06:42;6.07;;;3.20;;
53010;SDS011;42803;55.762;38.084;2023-02-13T06:09:12;7.30;;;2.75;;
53010;SDS011;42803;55.762;38.084;2023-02-13T06:11:41;9.13;;;3.33;;
53010;SDS011;42803;55.762;38.084;2023-02-13T06:14:10;7.53;;;3.97;;
53010;SDS011;42803;55.762;38.084;2023-02-13T06:16:40;10.48;;;3.22;;
53010;SDS011;42803;55.762;38.084;2023-02-13T06:19:09;6.53;;;3.20;;
53010;SDS011;42803;55.762;38.084;2023-02-13T06:21:38;6.20;;;2.95;;
53010;SDS011;42803;55.762;38.084;2023-02-13T06:24:08;9.27;;;2.58;;
53010;SDS011;42803;55.762;38.084;2023-02-13T06:26:38;10.40;;;3.85;;
53010;SDS011;42803;55.762;38.084;2023-02-13T06:29:07;5.85;;;3.78;;
53010;SDS011;42803;55.762;38.084;2023-02-13T06:31:37;12.25;;;5.68;;
53010;SDS011;42803;55.762;38.084;2023-02-13T06:34:06;11.20;;;5.45;;
53010;SDS011;42803;55.762;38.084;2023-02-13T06:36:35;8.50;;;4.35;;
53010;SDS011;42803;55.762;38.084;2023-02-13T06:39:05;8.40;;;4.75;;
53010;SDS011;42803;55.762;38.084;2023-02-13T06:41:35;8.80;;;4.72;;
53010;SDS011;42803;55.762;38.084;2023-02-13T06:44:04;10.25;;;4.20;;
53010;SDS011;42803;55.762;38.084;2023-02-13T06:46:34;7.63;;;3.72;;
53010;SDS011;42803;55.762;38.084;2023-02-13T06:49:03;9.00;;;4.30;;
53010;SDS011;42803;55.762;38.084;2023-02-13T06:51:32;8.35;;;3.83;;
53010;SDS011;42803;55.762;38.084;2023-02-13T06:54:02;6.90;;;3.88;;
53010;SDS011;42803;55.762;38.084;2023-02-13T06:56:32;6.53;;;3.53;;
53010;SDS011;42803;55.762;38.084;2023-02-13T06:59:03;8.27;;;3.97;;
53010;SDS011;42803;55.762;38.084;2023-02-13T07:01:36;10.23;;;4.45;;
53010;SDS011;42803;55.762;38.084;2023-02-13T07:04:06;8.10;;;3.95;;
53010;SDS011;42803;55.762;38.084;2023-02-13T07:06:35;9.07;;;4.90;;
53010;SDS011;42803;55.762;38.084;2023-02-13T07:09:04;9.68;;;5.22;;
53010;SDS011;42803;55.762;38.084;2023-02-13T07:11:34;13.23;;;7.05;;
53010;SDS011;42803;55.762;38.084;2023-02-13T07:14:07;11.70;;;7.53;;
53010;SDS011;42803;55.762;38.084;2023-02-13T07:16:36;13.93;;;5.72;;
53010;SDS011;42803;55.762;38.084;2023-02-13T07:19:06;9.05;;;5.22;;
53010;SDS011;42803;55.762;38.084;2023-02-13T07:21:36;11.05;;;5.88;;
53010;SDS011;42803;55.762;38.084;2023-02-13T07:24:05;10.57;;;4.88;;
53010;SDS011;42803;55.762;38.084;2023-02-13T07:26:34;10.48;;;4.90;;
53010;SDS011;42803;55.762;38.084;2023-02-13T07:29:04;7.07;;;4.85;;
53010;SDS011;42803;55.762;38.084;2023-02-13T07:31:39;14.32;;;6.28;;
53010;SDS011;42803;55.762;38.084;2023-02-13T07:34:09;8.52;;;5.35;;
53010;SDS011;42803;55.762;38.084;2023-02-13T07:36:38;12.38;;;5.38;;
53010;SDS011;42803;55.762;38.084;2023-02-13T07:39:07;8.50;;;4.22;;
53010;SDS011;42803;55.762;38.084;2023-02-13T07:41:36;11.98;;;4.60;;
53010;SDS011;42803;55.762;38.084;2023-02-13T07:44:06;9.15;;;4.32;;
53010;SDS011;42803;55.762;38.084;2023-02-13T07:46:36;9.93;;;4.97;;
53010;SDS011;42803;55.762;38.084;2023-02-13T07:49:08;9.35;;;5.20;;
53010;SDS011;42803;55.762;38.084;2023-02-13T07:51:38;6.53;;;4.60;;
53010;SDS011;42803;55.762;38.084;2023-02-13T07:54:07;9.80;;;4.10;;
53010;SDS011;42803;55.762;38.084;2023-02-13T07:56:39;8.25;;;3.95;;
53010;SDS011;42803;55.762;38.084;2023-02-13T07:59:09;9.32;;;5.05;;
53010;SDS011;42803;55.762;38.084;2023-02-13T08:01:42;12.43;;;4.78;;
53010;SDS011;42803;55.762;38.084;2023-02-13T08:04:14;9.55;;;3.90;;
53010;SDS011;42803;55.762;38.084;2023-02-13T08:06:44;6.65;;;4.03;;
53010;SDS011;42803;55.762;38.084;2023-02-13T08:09:17;8.55;;;3.97;;
53010;SDS011;42803;55.762;38.084;2023-02-13T08:12:07;8.65;;;3.78;;
53010;SDS011;42803;55.762;38.084;2023-02-13T08:14:37;8.75;;;3.85;;
53010;SDS011;42803;55.762;38.084;2023-02-13T08:17:08;10.88;;;3.50;;
53010;SDS011;42803;55.762;38.084;2023-02-13T08:19:39;7.25;;;3.92;;
53010;SDS011;42803;55.762;38.084;2023-02-13T08:22:09;9.80;;;4.38;;
53010;SDS011;42803;55.762;38.084;2023-02-13T08:24:39;11.00;;;4.68;;
53010;SDS011;42803;55.762;38.084;2023-02-13T08:27:10;8.30;;;4.90;;
53010;SDS011;42803;55.762;38.084;2023-02-13T08:29:40;11.13;;;4.57;;
53010;SDS011;42803;55.762;38.084;2023-02-13T08:32:09;6.03;;;4.13;;
53010;SDS011;42803;55.762;38.084;2023-02-13T08:34:40;11.43;;;4.20;;
53010;SDS011;42803;55.762;38.084;2023-02-13T08:37:11;7.72;;;3.67;;
53010;SDS011;42803;55.762;38.084;2023-02-13T08:39:41;7.13;;;3.28;;
53010;SDS011;42803;55.762;38.084;2023-02-13T08:42:10;8.73;;;3.70;;
53010;SDS011;42803;55.762;38.084;2023-02-13T08:44:43;7.13;;;3.97;;
53010;SDS011;42803;55.762;38.084;2023-02-13T08:47:12;5.35;;;3.15;;
53010;SDS011;42803;55.762;38.084;2023-02-13T08:49:43;5.55;;;3.25;;
53010;SDS011;42803;55.762;38.084;2023-02-13T08:52:12;7.22;;;2.97;;
53010;SDS011;42803;55.762;38.084;2023-02-13T08:54:42;7.95;;;3.15;;
53010;SDS011;42803;55.762;38.084;2023-02-13T08:57:12;5.80;;;3.15;;
53010;SDS011;42803;55.762;38.084;2023-02-13T08:59:41;7.10;;;2.80;;
53010;SDS011;42803;55.762;38.084;2023-02-13T09:02:10;7.60;;;3.17;;
53010;SDS011;42803;55.762;38.084;2023-02-13T09:04:40;7.85;;;3.20;;
53010;SDS011;42803;55.762;38.084;2023-02-13T09:07:12;7.05;;;3.17;;
53010;SDS011;42803;55.762;38.084;2023-02-13T09:09:41;11.52;;;3.47;;
53010;SDS011;42803;55.762;38.084;2023-02-13T09:12:11;6.32;;;3.45;;
53010;SDS011;42803;55.762;38.084;2023-02-13T09:14:40;5.82;;;3.47;;
53010;SDS011;42803;55.762;38.084;2023-02-13T09:17:09;7.13;;;3.38;;
53010;SDS011;42803;55.762;38.084;2023-02-13T09:19:38;5.78;;;3.05;;
53010;SDS011;42803;55.762;38.084;2023-02-13T09:22:09;11.60;;;3.78;;
53010;SDS011;42803;55.762;38.084;2023-02-13T09:24:38;8.90;;;4.18;;
53010;SDS011;42803;55.762;38.084;2023-02-13T09:27:07;10.80;;;4.05;;
53010;SDS011;42803;55.762;38.084;2023-02-13T09:29:36;7.15;;;3.75;;
53010;SDS011;42803;55.762;38.084;2023-02-13T09:32:05;5.15;;;2.25;;
53010;SDS011;42803;55.762;38.084;2023-02-13T09:34:34;4.45;;;3.20;;
53010;SDS011;42803;55.762;38.084;2023-02-13T09:37:04;4.95;;;2.67;;
53010;SDS011;42803;55.762;38.084;2023-02-13T09:39:34;8.32;;;2.85;;
53010;SDS011;42803;55.762;38.084;2023-02-13T09:42:04;5.90;;;3.45;;
53010;SDS011;42803;55.762;38.084;2023-02-13T09:44:43;7.72;;;3.20;;
53010;SDS011;42803;55.762;38.084;2023-02-13T09:47:20;6.22;;;3.05;;
53010;SDS011;42803;55.762;38.084;2023-02-13T09:49:58;7.55;;;2.78;;
53010;SDS011;42803;55.762;38.084;2023-02-13T09:52:31;7.00;;;3.35;;
53010;SDS011;42803;55.762;38.084;2023-02-13T09:55:05;8.05;;;3.53;;
53010;SDS011;42803;55.762;38.084;2023-02-13T09:57:43;6.05;;;3.42;;
53010;SDS011;42803;55.762;38.084;2023-02-13T10:00:20;6.68;;;3.20;;
53010;SDS011;42803;55.762;38.084;2023-02-13T10:03:00;5.90;;;2.97;;
53010;SDS011;42803;55.762;38.084;2023-02-13T10:05:50;6.22;;;3.20;;
53010;SDS011;42803;55.762;38.084;2023-02-13T10:08:29;8.27;;;3.40;;
53010;SDS011;42803;55.762;38.084;2023-02-13T10:11:16;9.65;;;4.18;;
53010;SDS011;42803;55.762;38.084;2023-02-13T10:13:58;17.90;;;4.85;;
53010;SDS011;42803;55.762;38.084;2023-02-13T10:16:34;11.60;;;5.40;;
53010;SDS011;42803;55.762;38.084;2023-02-13T10:19:09;12.07;;;4.43;;
53010;SDS011;42803;55.762;38.084;2023-02-13T10:21:48;5.88;;;3.17;;
53010;SDS011;42803;55.762;38.084;2023-02-13T10:24:25;8.18;;;3.53;;
53010;SDS011;42803;55.762;38.084;2023-02-13T10:27:04;5.40;;;3.65;;
53010;SDS011;42803;55.762;38.084;2023-02-13T10:29:44;6.60;;;3.88;;
53010;SDS011;42803;55.762;38.084;2023-02-13T10:32:41;9.88;;;4.13;;
53010;SDS011;42803;55.762;38.084;2023-02-13T10:35:20;5.22;;;3.10;;
53010;SDS011;42803;55.762;38.084;2023-02-13T10:37:54;7.00;;;3.28;;
53010;SDS011;42803;55.762;38.084;2023-02-13T10:40:27;9.27;;;3.45;;
53010;SDS011;42803;55.762;38.084;2023-02-13T10:43:02;6.93;;;3.88;;
53010;SDS011;42803;55.762;38.084;2023-02-13T10:45:44;6.53;;;3.97;;
53010;SDS011;42803;55.762;38.084;2023-02-13T10:48:28;9.98;;;4.18;;
53010;SDS011;42803;55.762;38.084;2023-02-13T10:51:10;9.10;;;4.07;;
53010;SDS011;42803;55.762;38.084;2023-02-13T10:53:50;6.40;;;3.67;;
53010;SDS011;42803;55.762;38.084;2023-02-13T10:56:30;7.68;;;3.83;;
53010;SDS011;42803;55.762;38.084;2023-02-13T10:59:17;9.35;;;4.60;;
53010;SDS011;42803;55.762;38.084;2023-02-13T11:02:10;7.55;;;4.28;;
53010;SDS011;42803;55.762;38.084;2023-02-13T11:04:48;6.38;;;4.57;;
53010;SDS011;42803;55.762;38.084;2023-02-13T11:07:20;8.90;;;4.68;;
53010;SDS011;42803;55.762;38.084;2023-02-13T11:09:53;10.98;;;8.02;;
53010;SDS011;42803;55.762;38.084;2023-02-13T11:12:27;10.07;;;7.28;;
53010;SDS011;42803;55.762;38.084;2023-02-13T11:15:00;7.35;;;4.35;;
53010;SDS011;42803;55.762;38.084;2023-02-13T11:17:33;9.55;;;4.25;;
53010;SDS011;42803;55.762;38.084;2023-02-13T11:22:50;8.50;;;4.78;;
53010;SDS011;42803;55.762;38.084;2023-02-13T11:25:20;7.80;;;4.88;;
53010;SDS011;42803;55.762;38.084;2023-02-13T11:27:53;10.50;;;4.70;;
53010;SDS011;42803;55.762;38.084;2023-02-13T11:30:37;7.20;;;4.22;;
53010;SDS011;42803;55.762;38.084;2023-02-13T11:33:22;7.38;;;4.38;;
53010;SDS011;42803;55.762;38.084;2023-02-13T11:36:03;9.93;;;4.55;;
53010;SDS011;42803;55.762;38.084;2023-02-13T11:38:34;8.18;;;4.80;;
53010;SDS011;42803;55.762;38.084;2023-02-13T11:41:05;7.13;;;3.60;;
53010;SDS011;42803;55.762;38.084;2023-02-13T11:43:43;10.60;;;3.90;;
53010;SDS011;42803;55.762;38.084;2023-02-13T11:46:20;8.10;;;4.28;;
53010;SDS011;42803;55.762;38.084;2023-02-13T11:51:36;11.18;;;4.05;;
53010;SDS011;42803;55.762;38.084;2023-02-13T11:54:18;8.88;;;4.28;;
53010;SDS011;42803;55.762;38.084;2023-02-13T11:56:53;12.18;;;3.95;;
53010;SDS011;42803;55.762;38.084;2023-02-13T11:59:37;6.85;;;3.58;;
53010;SDS011;42803;55.762;38.084;2023-02-13T12:02:14;7.80;;;3.72;;
53010;SDS011;42803;55.762;38.084;2023-02-13T12:04:46;7.40;;;3.92;;
53010;SDS011;42803;55.762;38.084;2023-02-13T12:07:21;8.20;;;4.03;;
53010;SDS011;42803;55.762;38.084;2023-02-13T12:09:54;4.25;;;3.17;;
53010;SDS011;42803;55.762;38.084;2023-02-13T12:12:32;5.68;;;3.50;;
53010;SDS011;42803;55.762;38.084;2023-02-13T12:15:09;6.45;;;3.70;;
53010;SDS011;42803;55.762;38.084;2023-02-13T12:17:46;6.53;;;4.00;;
53010;SDS011;42803;55.762;38.084;2023-02-13T12:20:24;9.07;;;4.28;;
53010;SDS011;42803;55.762;38.084;2023-02-13T12:23:00;12.88;;;3.97;;
53010;SDS011;42803;55.762;38.084;2023-02-13T12:25:43;9.18;;;3.70;;
53010;SDS011;42803;55.762;38.084;2023-02-13T12:28:27;5.07;;;3.33;;
53010;SDS011;42803;55.762;38.084;2023-02-13T12:33:58;7.13;;;3.88;;
53010;SDS011;42803;55.762;38.084;2023-02-13T12:36:51;9.35;;;3.50;;
53010;SDS011;42803;55.762;38.084;2023-02-13T12:39:30;6.95;;;3.70;;
53010;SDS011;42803;55.762;38.084;2023-02-13T12:42:13;8.77;;;3.83;;
53010;SDS011;42803;55.762;38.084;2023-02-13T12:45:01;6.38;;;4.45;;
53010;SDS011;42803;55.762;38.084;2023-02-13T12:47:42;11.82;;;4.70;;
53010;SDS011;42803;55.762;38.084;2023-02-13T12:50:31;9.75;;;4.70;;
53010;SDS011;42803;55.762;38.084;2023-02-13T12:53:17;13.35;;;5.03;;
53010;SDS011;42803;55.762;38.084;2023-02-13T12:56:11;14.50;;;5.13;;
53010;SDS011;42803;55.762;38.084;2023-02-13T12:58:56;10.88;;;5.10;;
53010;SDS011;42803;55.762;38.084;2023-02-13T13:01:38;8.38;;;4.18;;
53010;SDS011;42803;55.762;38.084;2023-02-13T13:04:33;7.97;;;4.88;;
53010;SDS011;42803;55.762;38.084;2023-02-13T13:07:21;7.80;;;4.50;;
53010;SDS011;42803;55.762;38.084;2023-02-13T13:10:19;8.95;;;4.25;;
53010;SDS011;42803;55.762;38.084;2023-02-13T13:13:07;7.35;;;4.60;;
53010;SDS011;42803;55.762;38.084;2023-02-13T13:15:43;9.40;;;4.60;;
53010;SDS011;42803;55.762;38.084;2023-02-13T13:18:25;9.50;;;3.70;;
53010;SDS011;42803;55.762;38.084;2023-02-13T13:21:02;8.25;;;4.45;;
53010;SDS011;42803;55.762;38.084;2023-02-13T13:23:47;7.82;;;4.40;;
53010;SDS011;42803;55.762;38.084;2023-02-13T13:26:24;8.48;;;4.03;;
53010;SDS011;42803;55.762;38.084;2023-02-13T13:29:03;9.50;;;3.78;;
53010;SDS011;42803;55.762;38.084;2023-02-13T13:31:38;14.68;;;4.88;;
53010;SDS011;42803;55.762;38.084;2023-02-13T13:34:12;10.45;;;3.85;;
53010;SDS011;42803;55.762;38.084;2023-02-13T13:36:50;6.75;;;3.40;;
53010;SDS011;42803;55.762;38.084;2023-02-13T13:39:28;5.97;;;3.55;;
53010;SDS011;42803;55.762;38.084;2023-02-13T13:42:06;9.27;;;3.42;;
53010;SDS011;42803;55.762;38.084;2023-02-13T13:44:47;7.25;;;3.40;;
53010;SDS011;42803;55.762;38.084;2023-02-13T13:47:25;6.97;;;3.60;;
53010;SDS011;42803;55.762;38.084;2023-02-13T13:50:12;5.70;;;3.25;;
53010;SDS011;42803;55.762;38.084;2023-02-13T13:56:02;10.02;;;4.07;;
53010;SDS011;42803;55.762;38.084;2023-02-13T13:58:35;7.95;;;3.63;;
53010;SDS011;42803;55.762;38.084;2023-02-13T14:01:16;8.73;;;3.90;;
53010;SDS011;42803;55.762;38.084;2023-02-13T14:03:47;5.72;;;3.78;;
53010;SDS011;42803;55.762;38.084;2023-02-13T14:06:17;15.93;;;6.63;;
53010;SDS011;42803;55.762;38.084;2023-02-13T14:08:58;24.08;;;6.18;;
53010;SDS011;42803;55.762;38.084;2023-02-13T14:11:32;19.92;;;6.53;;
53010;SDS011;42803;55.762;38.084;2023-02-13T14:20:32;16.92;;;5.22;;
53010;SDS011;42803;55.762;38.084;2023-02-13T14:23:13;8.82;;;3.90;;
53010;SDS011;42803;55.762;38.084;2023-02-13T14:28:55;6.55;;;3.88;;
53010;SDS011;42803;55.762;38.084;2023-02-13T14:31:50;7.90;;;3.70;;
53010;SDS011;42803;55.762;38.084;2023-02-13T14:34:27;6.65;;;3.28;;
53010;SDS011;42803;55.762;38.084;2023-02-13T14:37:05;6.75;;;3.40;;
53010;SDS011;42803;55.762;38.084;2023-02-13T14:43:12;12.52;;;3.08;;
53010;SDS011;42803;55.762;38.084;2023-02-13T14:46:18;8.43;;;2.70;;
53010;SDS011;42803;55.762;38.084;2023-02-13T14:48:56;5.78;;;2.53;;
53010;SDS011;42803;55.762;38.084;2023-02-13T14:51:32;6.35;;;2.90;;
53010;SDS011;42803;55.762;38.084;2023-02-13T14:54:04;5.75;;;3.20;;
53010;SDS011;42803;55.762;38.084;2023-02-13T14:56:40;6.72;;;3.60;;
53010;SDS011;42803;55.762;38.084;2023-02-13T14:59:14;7.82;;;3.25;;
53010;SDS011;42803;55.762;38.084;2023-02-13T15:01:48;6.10;;;3.78;;
53010;SDS011;42803;55.762;38.084;2023-02-13T15:06:53;8.15;;;3.92;;
53010;SDS011;42803;55.762;38.084;2023-02-13T15:09:31;7.00;;;3.22;;
53010;SDS011;42803;55.762;38.084;2023-02-13T15:14:52;11.10;;;4.45;;
53010;SDS011;42803;55.762;38.084;2023-02-13T15:17:23;7.00;;;3.75;;
53010;SDS011;42803;55.762;38.084;2023-02-13T15:19:57;11.77;;;4.40;;
53010;SDS011;42803;55.762;38.084;2023-02-13T15:22:32;12.40;;;4.60;;
53010;SDS011;42803;55.762;38.084;2023-02-13T15:25:03;8.02;;;4.75;;
53010;SDS011;42803;55.762;38.084;2023-02-13T15:27:35;9.32;;;3.95;;
53010;SDS011;42803;55.762;38.084;2023-02-13T15:30:17;6.97;;;3.80;;
53010;SDS011;42803;55.762;38.084;2023-02-13T15:32:54;9.95;;;3.70;;
53010;SDS011;42803;55.762;38.084;2023-02-13T15:35:24;8.90;;;3.55;;
53010;SDS011;42803;55.762;38.084;2023-02-13T15:37:55;8.38;;;3.47;;
53010;SDS011;42803;55.762;38.084;2023-02-13T15:40:25;3.55;;;2.92;;
53010;SDS011;42803;55.762;38.084;2023-02-13T15:42:56;8.15;;;3.83;;
53010;SDS011;42803;55.762;38.084;2023-02-13T15:45:27;5.38;;;3.20;;
53010;SDS011;42803;55.762;38.084;2023-02-13T15:47:59;4.80;;;3.00;;